Terminal Aerodrome Forecast
Issued by NWS Bismarck, ND

Home | Current Version | Previous Version | Graphics & Text | Print | Product List | Glossary On
Versions: 1 2 3 4 5 6 7 8 9 10 11 12 13 14 15 16 17 18 19 20 21 22
000
FTUS43 KBIS 251100
TAFBIS
TAF
KBIS 251132Z 2512/2612 28015G22KT P6SM BKN015 OVC020
     FM251700 30015KT P6SM BKN025 BKN035
     FM252000 30012KT P6SM SCT025 BKN035
     FM260000 31008KT P6SM SCT035
     FM260500 25004KT P6SM SCT040=

USA.gov is the U.S. government's official web portal to all federal, state and local government web resources and services.